sensor_id;sensor_type;location;lat;lon;timestamp;P1;durP1;ratioP1;P2;durP2;ratioP2
71238;SDS011;61342;51.442;7.370;2023-05-19T00:00:06;9.30;;;3.80;;
71238;SDS011;61342;51.442;7.370;2023-05-19T00:01:07;9.83;;;3.80;;
71238;SDS011;61342;51.442;7.370;2023-05-19T00:02:08;6.30;;;3.50;;
71238;SDS011;61342;51.442;7.370;2023-05-19T00:03:09;7.23;;;3.70;;
71238;SDS011;61342;51.442;7.370;2023-05-19T00:04:11;5.37;;;3.60;;
71238;SDS011;61342;51.442;7.370;2023-05-19T00:05:16;9.80;;;3.80;;
71238;SDS011;61342;51.442;7.370;2023-05-19T00:06:22;8.07;;;3.83;;
71238;SDS011;61342;51.442;7.370;2023-05-19T00:07:24;9.27;;;4.10;;
71238;SDS011;61342;51.442;7.370;2023-05-19T00:08:30;7.30;;;3.43;;
71238;SDS011;61342;51.442;7.370;2023-05-19T00:09:31;7.27;;;3.83;;
71238;SDS011;61342;51.442;7.370;2023-05-19T00:10:32;5.93;;;3.40;;
71238;SDS011;61342;51.442;7.370;2023-05-19T00:11:32;8.57;;;3.80;;
71238;SDS011;61342;51.442;7.370;2023-05-19T00:12:37;6.90;;;3.60;;
71238;SDS011;61342;51.442;7.370;2023-05-19T00:13:37;7.20;;;4.03;;
71238;SDS011;61342;51.442;7.370;2023-05-19T00:14:38;8.40;;;3.87;;
71238;SDS011;61342;51.442;7.370;2023-05-19T00:15:39;9.37;;;4.20;;
71238;SDS011;61342;51.442;7.370;2023-05-19T00:16:39;9.53;;;3.60;;
71238;SDS011;61342;51.442;7.370;2023-05-19T00:17:41;8.63;;;3.80;;
71238;SDS011;61342;51.442;7.370;2023-05-19T00:18:41;10.70;;;3.87;;
71238;SDS011;61342;51.442;7.370;2023-05-19T00:19:42;9.90;;;3.70;;
71238;SDS011;61342;51.442;7.370;2023-05-19T00:20:44;9.03;;;4.40;;
71238;SDS011;61342;51.442;7.370;2023-05-19T00:21:44;6.47;;;4.00;;
71238;SDS011;61342;51.442;7.370;2023-05-19T00:22:44;8.13;;;4.60;;
71238;SDS011;61342;51.442;7.370;2023-05-19T00:23:45;8.50;;;4.17;;
71238;SDS011;61342;51.442;7.370;2023-05-19T00:24:45;9.80;;;4.40;;
71238;SDS011;61342;51.442;7.370;2023-05-19T00:25:46;8.60;;;4.23;;
71238;SDS011;61342;51.442;7.370;2023-05-19T00:26:46;11.20;;;4.97;;
71238;SDS011;61342;51.442;7.370;2023-05-19T00:27:47;9.50;;;4.30;;
71238;SDS011;61342;51.442;7.370;2023-05-19T00:28:48;8.33;;;4.70;;
71238;SDS011;61342;51.442;7.370;2023-05-19T00:29:48;11.83;;;4.17;;
71238;SDS011;61342;51.442;7.370;2023-05-19T00:30:49;7.63;;;4.43;;
71238;SDS011;61342;51.442;7.370;2023-05-19T00:31:50;8.27;;;4.17;;
71238;SDS011;61342;51.442;7.370;2023-05-19T00:32:50;8.80;;;4.80;;
71238;SDS011;61342;51.442;7.370;2023-05-19T00:33:50;8.83;;;4.47;;
71238;SDS011;61342;51.442;7.370;2023-05-19T00:34:51;11.73;;;4.80;;
71238;SDS011;61342;51.442;7.370;2023-05-19T00:35:51;6.63;;;4.03;;
71238;SDS011;61342;51.442;7.370;2023-05-19T00:36:52;9.43;;;4.30;;
71238;SDS011;61342;51.442;7.370;2023-05-19T00:37:52;10.30;;;4.30;;
71238;SDS011;61342;51.442;7.370;2023-05-19T00:38:53;7.33;;;4.07;;
71238;SDS011;61342;51.442;7.370;2023-05-19T00:39:53;9.00;;;4.03;;
71238;SDS011;61342;51.442;7.370;2023-05-19T00:40:53;10.27;;;4.30;;
71238;SDS011;61342;51.442;7.370;2023-05-19T00:41:54;8.13;;;4.07;;
71238;SDS011;61342;51.442;7.370;2023-05-19T00:42:55;11.60;;;4.20;;
71238;SDS011;61342;51.442;7.370;2023-05-19T00:43:55;8.17;;;4.37;;
71238;SDS011;61342;51.442;7.370;2023-05-19T00:44:56;8.57;;;4.23;;
71238;SDS011;61342;51.442;7.370;2023-05-19T00:45:57;11.70;;;4.40;;
71238;SDS011;61342;51.442;7.370;2023-05-19T00:46:57;9.70;;;4.50;;
71238;SDS011;61342;51.442;7.370;2023-05-19T00:47:57;9.03;;;4.63;;
71238;SDS011;61342;51.442;7.370;2023-05-19T00:48:58;9.33;;;4.17;;
71238;SDS011;61342;51.442;7.370;2023-05-19T00:49:58;6.53;;;4.10;;
71238;SDS011;61342;51.442;7.370;2023-05-19T00:50:59;10.23;;;4.80;;
71238;SDS011;61342;51.442;7.370;2023-05-19T00:52:04;10.17;;;4.53;;
71238;SDS011;61342;51.442;7.370;2023-05-19T00:53:05;9.07;;;4.00;;
71238;SDS011;61342;51.442;7.370;2023-05-19T00:54:06;10.13;;;4.53;;
71238;SDS011;61342;51.442;7.370;2023-05-19T00:55:07;8.10;;;4.10;;
71238;SDS011;61342;51.442;7.370;2023-05-19T00:56:08;9.67;;;4.17;;
71238;SDS011;61342;51.442;7.370;2023-05-19T00:57:09;5.80;;;4.10;;
71238;SDS011;61342;51.442;7.370;2023-05-19T00:58:13;7.10;;;4.00;;
71238;SDS011;61342;51.442;7.370;2023-05-19T00:59:14;8.57;;;3.90;;
71238;SDS011;61342;51.442;7.370;2023-05-19T01:00:15;9.73;;;4.47;;
71238;SDS011;61342;51.442;7.370;2023-05-19T01:01:15;8.77;;;4.53;;
71238;SDS011;61342;51.442;7.370;2023-05-19T01:02:16;8.87;;;4.10;;
71238;SDS011;61342;51.442;7.370;2023-05-19T01:03:17;6.27;;;3.93;;
71238;SDS011;61342;51.442;7.370;2023-05-19T01:04:19;8.27;;;4.03;;
71238;SDS011;61342;51.442;7.370;2023-05-19T01:05:20;8.00;;;3.87;;
71238;SDS011;61342;51.442;7.370;2023-05-19T01:06:21;9.13;;;3.90;;
71238;SDS011;61342;51.442;7.370;2023-05-19T01:07:21;8.27;;;4.40;;
71238;SDS011;61342;51.442;7.370;2023-05-19T01:08:22;6.17;;;3.70;;
71238;SDS011;61342;51.442;7.370;2023-05-19T01:09:23;10.43;;;4.33;;
71238;SDS011;61342;51.442;7.370;2023-05-19T01:10:23;8.10;;;4.17;;
71238;SDS011;61342;51.442;7.370;2023-05-19T01:11:24;9.53;;;4.23;;
71238;SDS011;61342;51.442;7.370;2023-05-19T01:12:24;10.63;;;4.10;;
71238;SDS011;61342;51.442;7.370;2023-05-19T01:13:28;6.80;;;3.97;;
71238;SDS011;61342;51.442;7.370;2023-05-19T01:14:30;5.40;;;3.57;;
71238;SDS011;61342;51.442;7.370;2023-05-19T01:15:36;9.83;;;4.10;;
71238;SDS011;61342;51.442;7.370;2023-05-19T01:17:00;9.23;;;4.17;;
71238;SDS011;61342;51.442;7.370;2023-05-19T01:18:07;9.77;;;3.93;;
71238;SDS011;61342;51.442;7.370;2023-05-19T01:20:00;11.30;;;4.30;;
71238;SDS011;61342;51.442;7.370;2023-05-19T01:20:49;9.63;;;4.03;;
71238;SDS011;61342;51.442;7.370;2023-05-19T01:24:10;9.10;;;4.90;;
71238;SDS011;61342;51.442;7.370;2023-05-19T01:26:44;6.83;;;3.70;;
71238;SDS011;61342;51.442;7.370;2023-05-19T01:30:53;5.70;;;4.00;;
71238;SDS011;61342;51.442;7.370;2023-05-19T01:31:56;8.90;;;4.40;;
71238;SDS011;61342;51.442;7.370;2023-05-19T01:33:01;8.33;;;4.03;;
71238;SDS011;61342;51.442;7.370;2023-05-19T01:34:05;7.27;;;4.30;;
71238;SDS011;61342;51.442;7.370;2023-05-19T01:35:07;9.60;;;4.83;;
71238;SDS011;61342;51.442;7.370;2023-05-19T01:36:08;6.87;;;4.47;;
71238;SDS011;61342;51.442;7.370;2023-05-19T01:37:11;8.30;;;4.90;;
71238;SDS011;61342;51.442;7.370;2023-05-19T01:38:12;9.40;;;5.20;;
71238;SDS011;61342;51.442;7.370;2023-05-19T01:39:16;9.30;;;5.10;;
71238;SDS011;61342;51.442;7.370;2023-05-19T01:40:18;9.77;;;5.00;;
71238;SDS011;61342;51.442;7.370;2023-05-19T01:41:20;5.80;;;4.50;;
71238;SDS011;61342;51.442;7.370;2023-05-19T01:42:21;8.83;;;5.10;;
71238;SDS011;61342;51.442;7.370;2023-05-19T01:43:23;7.60;;;4.50;;
71238;SDS011;61342;51.442;7.370;2023-05-19T01:44:25;10.20;;;5.20;;
71238;SDS011;61342;51.442;7.370;2023-05-19T01:45:26;9.43;;;5.03;;
71238;SDS011;61342;51.442;7.370;2023-05-19T01:46:28;10.33;;;4.87;;
71238;SDS011;61342;51.442;7.370;2023-05-19T01:47:28;8.10;;;4.50;;
71238;SDS011;61342;51.442;7.370;2023-05-19T01:48:29;11.33;;;5.07;;
71238;SDS011;61342;51.442;7.370;2023-05-19T01:49:30;9.10;;;4.73;;
71238;SDS011;61342;51.442;7.370;2023-05-19T01:50:31;12.80;;;5.10;;
71238;SDS011;61342;51.442;7.370;2023-05-19T01:51:33;10.63;;;4.90;;
71238;SDS011;61342;51.442;7.370;2023-05-19T01:52:34;8.30;;;5.10;;
71238;SDS011;61342;51.442;7.370;2023-05-19T01:53:35;9.50;;;5.07;;
71238;SDS011;61342;51.442;7.370;2023-05-19T01:54:35;10.30;;;5.00;;
71238;SDS011;61342;51.442;7.370;2023-05-19T01:55:41;7.80;;;5.67;;
71238;SDS011;61342;51.442;7.370;2023-05-19T01:57:03;9.13;;;4.70;;
71238;SDS011;61342;51.442;7.370;2023-05-19T02:00:17;9.00;;;5.40;;
71238;SDS011;61342;51.442;7.370;2023-05-19T02:02:13;10.00;;;5.10;;
71238;SDS011;61342;51.442;7.370;2023-05-19T02:02:55;11.77;;;5.13;;
71238;SDS011;61342;51.442;7.370;2023-05-19T02:07:04;8.47;;;5.03;;
71238;SDS011;61342;51.442;7.370;2023-05-19T02:09:46;8.97;;;4.97;;
71238;SDS011;61342;51.442;7.370;2023-05-19T02:10:50;13.73;;;5.60;;
71238;SDS011;61342;51.442;7.370;2023-05-19T02:11:58;7.93;;;5.30;;
71238;SDS011;61342;51.442;7.370;2023-05-19T02:13:03;8.30;;;5.20;;
71238;SDS011;61342;51.442;7.370;2023-05-19T02:14:15;10.50;;;5.53;;
71238;SDS011;61342;51.442;7.370;2023-05-19T02:15:20;8.47;;;5.27;;
71238;SDS011;61342;51.442;7.370;2023-05-19T02:16:26;9.87;;;5.93;;
71238;SDS011;61342;51.442;7.370;2023-05-19T02:17:27;11.20;;;6.20;;
71238;SDS011;61342;51.442;7.370;2023-05-19T02:18:35;12.57;;;6.43;;
71238;SDS011;61342;51.442;7.370;2023-05-19T02:19:36;11.57;;;6.00;;
71238;SDS011;61342;51.442;7.370;2023-05-19T02:20:38;8.23;;;5.90;;
71238;SDS011;61342;51.442;7.370;2023-05-19T02:21:39;10.03;;;5.67;;
71238;SDS011;61342;51.442;7.370;2023-05-19T02:22:39;10.90;;;6.10;;
71238;SDS011;61342;51.442;7.370;2023-05-19T02:23:40;9.07;;;5.37;;
71238;SDS011;61342;51.442;7.370;2023-05-19T02:24:43;11.03;;;6.70;;
71238;SDS011;61342;51.442;7.370;2023-05-19T02:25:45;8.33;;;5.90;;
71238;SDS011;61342;51.442;7.370;2023-05-19T02:26:45;15.53;;;6.10;;
71238;SDS011;61342;51.442;7.370;2023-05-19T02:27:47;10.00;;;5.80;;
71238;SDS011;61342;51.442;7.370;2023-05-19T02:28:48;7.90;;;5.53;;
71238;SDS011;61342;51.442;7.370;2023-05-19T02:29:52;12.90;;;6.23;;
71238;SDS011;61342;51.442;7.370;2023-05-19T02:31:39;8.23;;;6.00;;
71238;SDS011;61342;51.442;7.370;2023-05-19T02:33:04;10.20;;;5.73;;
71238;SDS011;61342;51.442;7.370;2023-05-19T02:34:59;8.67;;;5.63;;
71238;SDS011;61342;51.442;7.370;2023-05-19T02:38:42;9.63;;;5.70;;
71238;SDS011;61342;51.442;7.370;2023-05-19T02:40:03;9.43;;;6.07;;
71238;SDS011;61342;51.442;7.370;2023-05-19T02:41:22;10.00;;;5.80;;
71238;SDS011;61342;51.442;7.370;2023-05-19T02:42:56;8.17;;;5.37;;
71238;SDS011;61342;51.442;7.370;2023-05-19T02:52:20;8.63;;;6.13;;
71238;SDS011;61342;51.442;7.370;2023-05-19T02:53:21;12.03;;;6.60;;
71238;SDS011;61342;51.442;7.370;2023-05-19T02:54:21;7.83;;;5.70;;
71238;SDS011;61342;51.442;7.370;2023-05-19T02:55:21;10.13;;;6.40;;
71238;SDS011;61342;51.442;7.370;2023-05-19T02:56:22;9.67;;;6.00;;
71238;SDS011;61342;51.442;7.370;2023-05-19T02:57:22;9.43;;;6.37;;
71238;SDS011;61342;51.442;7.370;2023-05-19T02:58:23;13.60;;;6.33;;
71238;SDS011;61342;51.442;7.370;2023-05-19T02:59:23;9.77;;;6.47;;
71238;SDS011;61342;51.442;7.370;2023-05-19T03:00:24;8.97;;;5.77;;
71238;SDS011;61342;51.442;7.370;2023-05-19T03:01:25;8.60;;;6.27;;
71238;SDS011;61342;51.442;7.370;2023-05-19T03:02:25;11.23;;;6.77;;
71238;SDS011;61342;51.442;7.370;2023-05-19T03:03:25;10.67;;;6.00;;
71238;SDS011;61342;51.442;7.370;2023-05-19T03:04:27;13.50;;;6.87;;
71238;SDS011;61342;51.442;7.370;2023-05-19T03:05:28;10.70;;;6.33;;
71238;SDS011;61342;51.442;7.370;2023-05-19T03:06:31;9.50;;;6.20;;
71238;SDS011;61342;51.442;7.370;2023-05-19T03:07:31;10.13;;;5.83;;
71238;SDS011;61342;51.442;7.370;2023-05-19T03:08:33;7.63;;;6.00;;
71238;SDS011;61342;51.442;7.370;2023-05-19T03:09:37;8.57;;;5.93;;
71238;SDS011;61342;51.442;7.370;2023-05-19T03:10:37;10.70;;;6.40;;
71238;SDS011;61342;51.442;7.370;2023-05-19T03:11:38;17.97;;;6.53;;
71238;SDS011;61342;51.442;7.370;2023-05-19T03:12:38;9.47;;;6.60;;
71238;SDS011;61342;51.442;7.370;2023-05-19T03:13:39;11.13;;;6.33;;
71238;SDS011;61342;51.442;7.370;2023-05-19T03:14:40;11.70;;;6.17;;
71238;SDS011;61342;51.442;7.370;2023-05-19T03:15:41;10.30;;;6.40;;
71238;SDS011;61342;51.442;7.370;2023-05-19T03:16:42;12.23;;;6.43;;
71238;SDS011;61342;51.442;7.370;2023-05-19T03:17:42;10.23;;;6.50;;
71238;SDS011;61342;51.442;7.370;2023-05-19T03:18:42;15.57;;;6.60;;
71238;SDS011;61342;51.442;7.370;2023-05-19T03:19:43;13.20;;;6.70;;
71238;SDS011;61342;51.442;7.370;2023-05-19T03:20:43;13.93;;;5.93;;
71238;SDS011;61342;51.442;7.370;2023-05-19T03:21:43;10.17;;;5.87;;
71238;SDS011;61342;51.442;7.370;2023-05-19T03:22:44;10.70;;;6.33;;
71238;SDS011;61342;51.442;7.370;2023-05-19T03:23:44;8.23;;;6.53;;
71238;SDS011;61342;51.442;7.370;2023-05-19T03:24:46;10.47;;;6.10;;
71238;SDS011;61342;51.442;7.370;2023-05-19T03:25:48;11.80;;;6.47;;
71238;SDS011;61342;51.442;7.370;2023-05-19T03:26:49;12.67;;;6.40;;
71238;SDS011;61342;51.442;7.370;2023-05-19T03:27:50;10.50;;;6.80;;
71238;SDS011;61342;51.442;7.370;2023-05-19T03:28:51;12.60;;;7.03;;
71238;SDS011;61342;51.442;7.370;2023-05-19T03:29:51;12.77;;;6.37;;
71238;SDS011;61342;51.442;7.370;2023-05-19T03:30:52;8.47;;;6.53;;
71238;SDS011;61342;51.442;7.370;2023-05-19T03:31:53;10.20;;;6.67;;
71238;SDS011;61342;51.442;7.370;2023-05-19T03:32:53;13.17;;;6.53;;
71238;SDS011;61342;51.442;7.370;2023-05-19T03:33:54;12.97;;;5.73;;
71238;SDS011;61342;51.442;7.370;2023-05-19T03:34:54;14.80;;;6.70;;
71238;SDS011;61342;51.442;7.370;2023-05-19T03:35:55;7.57;;;6.27;;
71238;SDS011;61342;51.442;7.370;2023-05-19T03:36:56;11.37;;;6.63;;
71238;SDS011;61342;51.442;7.370;2023-05-19T03:37:56;12.70;;;6.70;;
71238;SDS011;61342;51.442;7.370;2023-05-19T03:38:57;9.90;;;6.20;;
71238;SDS011;61342;51.442;7.370;2023-05-19T03:39:58;9.93;;;6.30;;
71238;SDS011;61342;51.442;7.370;2023-05-19T03:40:59;9.67;;;6.43;;
71238;SDS011;61342;51.442;7.370;2023-05-19T03:41:59;12.93;;;6.30;;
71238;SDS011;61342;51.442;7.370;2023-05-19T03:42:59;12.33;;;6.30;;
71238;SDS011;61342;51.442;7.370;2023-05-19T03:44:00;14.40;;;7.00;;
71238;SDS011;61342;51.442;7.370;2023-05-19T03:45:01;12.43;;;6.37;;
71238;SDS011;61342;51.442;7.370;2023-05-19T03:46:02;16.87;;;6.63;;
71238;SDS011;61342;51.442;7.370;2023-05-19T03:47:02;11.67;;;6.17;;
71238;SDS011;61342;51.442;7.370;2023-05-19T03:48:03;9.17;;;6.43;;
71238;SDS011;61342;51.442;7.370;2023-05-19T03:49:04;10.87;;;5.97;;
71238;SDS011;61342;51.442;7.370;2023-05-19T03:50:04;9.23;;;6.47;;
71238;SDS011;61342;51.442;7.370;2023-05-19T03:51:05;11.20;;;5.90;;
71238;SDS011;61342;51.442;7.370;2023-05-19T03:52:06;12.13;;;6.57;;
71238;SDS011;61342;51.442;7.370;2023-05-19T03:53:06;7.73;;;6.33;;
71238;SDS011;61342;51.442;7.370;2023-05-19T03:54:07;9.63;;;6.43;;
71238;SDS011;61342;51.442;7.370;2023-05-19T03:55:07;9.40;;;6.50;;
71238;SDS011;61342;51.442;7.370;2023-05-19T03:56:08;11.90;;;6.90;;
71238;SDS011;61342;51.442;7.370;2023-05-19T03:57:12;8.40;;;6.23;;
71238;SDS011;61342;51.442;7.370;2023-05-19T03:58:13;12.07;;;6.67;;
71238;SDS011;61342;51.442;7.370;2023-05-19T03:59:17;9.03;;;6.20;;
71238;SDS011;61342;51.442;7.370;2023-05-19T04:00:23;10.40;;;6.23;;
71238;SDS011;61342;51.442;7.370;2023-05-19T04:01:42;11.73;;;6.97;;
71238;SDS011;61342;51.442;7.370;2023-05-19T04:03:11;10.40;;;7.00;;
71238;SDS011;61342;51.442;7.370;2023-05-19T04:04:17;13.80;;;6.37;;
71238;SDS011;61342;51.442;7.370;2023-05-19T04:05:29;12.67;;;6.63;;
71238;SDS011;61342;51.442;7.370;2023-05-19T04:07:09;12.97;;;6.93;;
71238;SDS011;61342;51.442;7.370;2023-05-19T04:08:13;10.20;;;7.43;;
71238;SDS011;61342;51.442;7.370;2023-05-19T04:09:41;11.37;;;7.13;;
71238;SDS011;61342;51.442;7.370;2023-05-19T04:10:47;12.67;;;6.97;;
71238;SDS011;61342;51.442;7.370;2023-05-19T04:12:09;10.70;;;7.23;;
71238;SDS011;61342;51.442;7.370;2023-05-19T04:14:45;14.20;;;6.77;;
71238;SDS011;61342;51.442;7.370;2023-05-19T04:15:46;10.27;;;7.33;;
71238;SDS011;61342;51.442;7.370;2023-05-19T04:16:49;10.97;;;7.03;;
71238;SDS011;61342;51.442;7.370;2023-05-19T04:17:51;10.10;;;6.83;;
71238;SDS011;61342;51.442;7.370;2023-05-19T04:18:51;13.23;;;7.23;;
71238;SDS011;61342;51.442;7.370;2023-05-19T04:19:52;10.83;;;7.10;;
71238;SDS011;61342;51.442;7.370;2023-05-19T04:20:53;11.20;;;6.63;;
71238;SDS011;61342;51.442;7.370;2023-05-19T04:21:53;12.67;;;6.63;;
71238;SDS011;61342;51.442;7.370;2023-05-19T04:22:54;10.60;;;6.90;;
71238;SDS011;61342;51.442;7.370;2023-05-19T04:23:57;12.20;;;6.93;;
71238;SDS011;61342;51.442;7.370;2023-05-19T04:25:12;13.73;;;6.47;;
71238;SDS011;61342;51.442;7.370;2023-05-19T04:26:12;11.73;;;7.47;;
71238;SDS011;61342;51.442;7.370;2023-05-19T04:27:15;9.20;;;6.67;;
71238;SDS011;61342;51.442;7.370;2023-05-19T04:28:17;9.80;;;6.80;;
71238;SDS011;61342;51.442;7.370;2023-05-19T04:29:25;10.60;;;7.13;;
71238;SDS011;61342;51.442;7.370;2023-05-19T04:30:28;9.40;;;6.80;;
71238;SDS011;61342;51.442;7.370;2023-05-19T04:31:42;8.47;;;6.43;;
71238;SDS011;61342;51.442;7.370;2023-05-19T04:32:49;12.40;;;6.50;;
71238;SDS011;61342;51.442;7.370;2023-05-19T04:33:49;8.13;;;6.10;;
71238;SDS011;61342;51.442;7.370;2023-05-19T04:34:52;11.97;;;6.87;;
71238;SDS011;61342;51.442;7.370;2023-05-19T04:35:55;19.63;;;7.80;;
71238;SDS011;61342;51.442;7.370;2023-05-19T04:37:16;9.03;;;6.80;;
71238;SDS011;61342;51.442;7.370;2023-05-19T04:38:24;8.93;;;6.93;;
71238;SDS011;61342;51.442;7.370;2023-05-19T04:39:28;13.97;;;7.50;;
71238;SDS011;61342;51.442;7.370;2023-05-19T04:40:40;13.03;;;7.33;;
71238;SDS011;61342;51.442;7.370;2023-05-19T04:41:51;10.33;;;6.87;;
71238;SDS011;61342;51.442;7.370;2023-05-19T04:42:58;17.47;;;7.70;;
71238;SDS011;61342;51.442;7.370;2023-05-19T04:44:13;9.90;;;7.07;;
71238;SDS011;61342;51.442;7.370;2023-05-19T04:45:20;14.20;;;7.40;;
71238;SDS011;61342;51.442;7.370;2023-05-19T04:46:25;9.83;;;6.97;;
71238;SDS011;61342;51.442;7.370;2023-05-19T04:47:28;13.60;;;7.37;;
71238;SDS011;61342;51.442;7.370;2023-05-19T04:48:29;11.77;;;7.37;;
71238;SDS011;61342;51.442;7.370;2023-05-19T04:49:29;11.30;;;7.27;;
71238;SDS011;61342;51.442;7.370;2023-05-19T04:50:30;13.60;;;7.60;;
71238;SDS011;61342;51.442;7.370;2023-05-19T04:51:46;10.63;;;7.03;;
71238;SDS011;61342;51.442;7.370;2023-05-19T04:52:53;9.63;;;7.40;;
71238;SDS011;61342;51.442;7.370;2023-05-19T04:55:10;11.00;;;7.13;;
71238;SDS011;61342;51.442;7.370;2023-05-19T04:56:10;10.47;;;7.20;;
71238;SDS011;61342;51.442;7.370;2023-05-19T04:57:19;11.83;;;6.77;;
71238;SDS011;61342;51.442;7.370;2023-05-19T04:58:49;12.37;;;7.43;;
71238;SDS011;61342;51.442;7.370;2023-05-19T05:01:28;10.70;;;7.20;;
71238;SDS011;61342;51.442;7.370;2023-05-19T05:02:32;8.87;;;6.70;;
71238;SDS011;61342;51.442;7.370;2023-05-19T05:03:38;8.77;;;7.20;;
71238;SDS011;61342;51.442;7.370;2023-05-19T05:05:05;13.27;;;7.33;;
71238;SDS011;61342;51.442;7.370;2023-05-19T05:06:11;9.20;;;6.73;;
71238;SDS011;61342;51.442;7.370;2023-05-19T05:07:12;13.30;;;7.57;;
71238;SDS011;61342;51.442;7.370;2023-05-19T05:08:12;10.97;;;6.67;;
71238;SDS011;61342;51.442;7.370;2023-05-19T05:11:21;10.80;;;6.87;;
71238;SDS011;61342;51.442;7.370;2023-05-19T05:12:22;12.87;;;7.00;;
71238;SDS011;61342;51.442;7.370;2023-05-19T05:13:36;12.40;;;7.07;;
71238;SDS011;61342;51.442;7.370;2023-05-19T05:14:55;10.87;;;7.20;;
71238;SDS011;61342;51.442;7.370;2023-05-19T05:18:21;12.43;;;7.30;;
71238;SDS011;61342;51.442;7.370;2023-05-19T05:19:25;14.53;;;7.80;;
71238;SDS011;61342;51.442;7.370;2023-05-19T05:20:32;12.07;;;7.73;;
71238;SDS011;61342;51.442;7.370;2023-05-19T05:22:05;8.23;;;6.83;;
71238;SDS011;61342;51.442;7.370;2023-05-19T05:23:06;10.87;;;7.33;;
71238;SDS011;61342;51.442;7.370;2023-05-19T05:24:21;13.93;;;7.93;;
71238;SDS011;61342;51.442;7.370;2023-05-19T05:25:22;12.80;;;6.97;;
71238;SDS011;61342;51.442;7.370;2023-05-19T05:26:35;10.73;;;7.30;;
71238;SDS011;61342;51.442;7.370;2023-05-19T05:27:41;11.30;;;6.17;;
71238;SDS011;61342;51.442;7.370;2023-05-19T05:28:43;12.53;;;7.10;;
71238;SDS011;61342;51.442;7.370;2023-05-19T05:29:46;10.63;;;6.67;;
71238;SDS011;61342;51.442;7.370;2023-05-19T05:30:56;13.40;;;6.80;;
71238;SDS011;61342;51.442;7.370;2023-05-19T05:32:05;9.50;;;6.60;;
71238;SDS011;61342;51.442;7.370;2023-05-19T05:33:09;10.87;;;6.93;;
71238;SDS011;61342;51.442;7.370;2023-05-19T05:34:12;9.73;;;6.67;;
71238;SDS011;61342;51.442;7.370;2023-05-19T05:35:28;9.47;;;6.53;;
71238;SDS011;61342;51.442;7.370;2023-05-19T05:36:43;9.70;;;6.10;;
71238;SDS011;61342;51.442;7.370;2023-05-19T05:37:53;9.73;;;6.40;;
71238;SDS011;61342;51.442;7.370;2023-05-19T05:40:32;9.13;;;6.90;;
71238;SDS011;61342;51.442;7.370;2023-05-19T05:41:33;13.63;;;6.73;;
71238;SDS011;61342;51.442;7.370;2023-05-19T05:42:39;15.23;;;6.93;;
71238;SDS011;61342;51.442;7.370;2023-05-19T05:43:40;11.33;;;6.57;;
71238;SDS011;61342;51.442;7.370;2023-05-19T05:45:12;9.67;;;6.47;;
71238;SDS011;61342;51.442;7.370;2023-05-19T05:46:12;11.13;;;6.70;;
71238;SDS011;61342;51.442;7.370;2023-05-19T05:47:19;15.63;;;6.80;;
71238;SDS011;61342;51.442;7.370;2023-05-19T05:48:20;11.77;;;6.43;;
71238;SDS011;61342;51.442;7.370;2023-05-19T05:49:20;10.83;;;6.00;;
71238;SDS011;61342;51.442;7.370;2023-05-19T05:50:21;9.93;;;6.43;;
71238;SDS011;61342;51.442;7.370;2023-05-19T05:51:22;9.13;;;6.27;;
71238;SDS011;61342;51.442;7.370;2023-05-19T05:52:23;9.90;;;6.03;;
71238;SDS011;61342;51.442;7.370;2023-05-19T05:53:29;10.40;;;5.93;;
71238;SDS011;61342;51.442;7.370;2023-05-19T05:54:33;9.87;;;6.17;;
71238;SDS011;61342;51.442;7.370;2023-05-19T05:55:37;7.67;;;5.53;;
71238;SDS011;61342;51.442;7.370;2023-05-19T05:56:43;8.80;;;5.63;;
71238;SDS011;61342;51.442;7.370;2023-05-19T05:57:44;9.00;;;6.20;;
71238;SDS011;61342;51.442;7.370;2023-05-19T05:58:51;8.97;;;5.80;;
71238;SDS011;61342;51.442;7.370;2023-05-19T05:59:52;9.30;;;5.73;;
71238;SDS011;61342;51.442;7.370;2023-05-19T06:00:56;11.10;;;6.10;;
71238;SDS011;61342;51.442;7.370;2023-05-19T06:01:59;12.40;;;6.30;;
71238;SDS011;61342;51.442;7.370;2023-05-19T06:03:02;9.03;;;5.53;;
71238;SDS011;61342;51.442;7.370;2023-05-19T06:04:06;8.87;;;5.60;;
71238;SDS011;61342;51.442;7.370;2023-05-19T06:05:07;9.40;;;5.70;;
71238;SDS011;61342;51.442;7.370;2023-05-19T06:06:12;9.73;;;6.00;;
71238;SDS011;61342;51.442;7.370;2023-05-19T06:07:12;10.00;;;6.23;;
71238;SDS011;61342;51.442;7.370;2023-05-19T06:08:16;7.17;;;5.53;;
71238;SDS011;61342;51.442;7.370;2023-05-19T06:09:17;8.93;;;5.60;;
71238;SDS011;61342;51.442;7.370;2023-05-19T06:10:17;9.40;;;5.90;;
71238;SDS011;61342;51.442;7.370;2023-05-19T06:11:18;7.93;;;5.57;;
71238;SDS011;61342;51.442;7.370;2023-05-19T06:12:18;10.87;;;6.27;;
71238;SDS011;61342;51.442;7.370;2023-05-19T06:13:19;7.77;;;5.90;;
71238;SDS011;61342;51.442;7.370;2023-05-19T06:14:25;10.40;;;6.27;;
71238;SDS011;61342;51.442;7.370;2023-05-19T06:15:26;8.27;;;5.27;;
71238;SDS011;61342;51.442;7.370;2023-05-19T06:16:26;7.97;;;5.30;;
71238;SDS011;61342;51.442;7.370;2023-05-19T06:17:27;11.57;;;6.23;;
71238;SDS011;61342;51.442;7.370;2023-05-19T06:18:30;10.17;;;5.67;;
71238;SDS011;61342;51.442;7.370;2023-05-19T06:19:33;10.63;;;5.40;;
71238;SDS011;61342;51.442;7.370;2023-05-19T06:20:37;10.57;;;5.43;;
71238;SDS011;61342;51.442;7.370;2023-05-19T06:21:37;9.33;;;5.73;;
71238;SDS011;61342;51.442;7.370;2023-05-19T06:22:38;7.80;;;5.70;;
71238;SDS011;61342;51.442;7.370;2023-05-19T06:23:39;9.13;;;5.83;;
71238;SDS011;61342;51.442;7.370;2023-05-19T06:24:42;8.83;;;5.73;;
71238;SDS011;61342;51.442;7.370;2023-05-19T06:25:43;7.87;;;5.53;;
71238;SDS011;61342;51.442;7.370;2023-05-19T06:26:43;11.90;;;5.73;;
71238;SDS011;61342;51.442;7.370;2023-05-19T06:27:46;11.30;;;5.53;;
71238;SDS011;61342;51.442;7.370;2023-05-19T06:28:47;8.80;;;5.27;;
71238;SDS011;61342;51.442;7.370;2023-05-19T06:29:47;9.27;;;4.80;;
71238;SDS011;61342;51.442;7.370;2023-05-19T06:30:48;10.17;;;5.07;;
71238;SDS011;61342;51.442;7.370;2023-05-19T06:31:48;6.33;;;4.90;;
71238;SDS011;61342;51.442;7.370;2023-05-19T06:32:48;8.30;;;4.90;;
71238;SDS011;61342;51.442;7.370;2023-05-19T06:33:49;9.37;;;5.83;;
71238;SDS011;61342;51.442;7.370;2023-05-19T06:34:50;9.07;;;5.37;;
71238;SDS011;61342;51.442;7.370;2023-05-19T06:35:53;7.77;;;4.97;;
71238;SDS011;61342;51.442;7.370;2023-05-19T06:36:53;7.47;;;4.97;;
71238;SDS011;61342;51.442;7.370;2023-05-19T06:37:54;8.77;;;5.03;;
71238;SDS011;61342;51.442;7.370;2023-05-19T06:38:55;9.20;;;4.33;;
71238;SDS011;61342;51.442;7.370;2023-05-19T06:40:01;9.13;;;5.00;;
71238;SDS011;61342;51.442;7.370;2023-05-19T06:41:04;9.17;;;4.70;;
71238;SDS011;61342;51.442;7.370;2023-05-19T06:42:05;10.10;;;5.20;;
71238;SDS011;61342;51.442;7.370;2023-05-19T06:43:05;9.33;;;5.10;;
71238;SDS011;61342;51.442;7.370;2023-05-19T06:44:06;11.40;;;5.03;;
71238;SDS011;61342;51.442;7.370;2023-05-19T06:45:08;9.57;;;4.80;;
71238;SDS011;61342;51.442;7.370;2023-05-19T06:46:08;12.40;;;4.80;;
71238;SDS011;61342;51.442;7.370;2023-05-19T06:47:11;7.03;;;4.27;;
71238;SDS011;61342;51.442;7.370;2023-05-19T06:48:11;7.50;;;4.77;;
71238;SDS011;61342;51.442;7.370;2023-05-19T06:49:11;8.30;;;4.20;;
71238;SDS011;61342;51.442;7.370;2023-05-19T06:50:12;12.03;;;4.77;;
71238;SDS011;61342;51.442;7.370;2023-05-19T06:51:12;8.93;;;4.50;;
71238;SDS011;61342;51.442;7.370;2023-05-19T06:52:15;4.40;;;3.80;;
71238;SDS011;61342;51.442;7.370;2023-05-19T06:53:17;10.60;;;3.90;;
71238;SDS011;61342;51.442;7.370;2023-05-19T06:54:18;10.93;;;4.60;;
71238;SDS011;61342;51.442;7.370;2023-05-19T06:55:19;10.67;;;4.60;;
71238;SDS011;61342;51.442;7.370;2023-05-19T06:56:20;8.17;;;4.73;;
71238;SDS011;61342;51.442;7.370;2023-05-19T06:57:22;10.63;;;4.10;;